Colwyn Bay, United Kingdom
Current Conditions -  °F | °C
As of 8:20 PM on Friday 21 Nov 2014 (Local Time) from EGNR Reporting Station
Broken Clouds Broken Clouds  
Wind Chill: 39°   Ceiling: 1700
Heat Index: 46°   Visibility: 4mi
Dew Point: 45°   Wind: 18mph
Humidity: 93%   Direction: 150°SSE
Pressure: 29.83"   Gusts: NA
Location:  53.29°N, 3.72°W
Report Text: EGNR 212020Z 15016KT 7000 FEW007 BKN017 08/07 Q1010 RERA
Loading
Personal Weather Stations






























Interactive Weather Map New forecast layout! Learn more

10-Day Weather Forecast

Advertisements
Track Severe Weather on mobile